Time;durP1;ratioP1;P1;durP2;ratioP2;P2;SDS_P1;SDS_P2;PMS_P1;PMS_P2;Temp;Humidity;BMP_temperature;BMP_pressure;BME280_temperature;BME280_humidity;BME280_pressure;Samples;Min_cycle;Max_cycle;Signal;HPM_P1;HPM_P2
2022/02/10 00:13:56;;;;;;;5.40;2.50;;;;;;;;;;5010380;28;20366;-73
2022/02/10 00:21:29;;;;;;;3.70;2.10;;;;;;;;;;5010345;28;20026;-74
2022/02/10 00:34:59;;;;;;;4.13;1.85;;;;;;;;;;4917664;29;20399;-73
2022/02/10 00:37:35;;;;;;;3.80;1.90;;;;;;;;;;4922407;29;20094;-74
2022/02/10 00:40:12;;;;;;;3.92;1.88;;;;;;;;;;4916402;29;20110;-74
2022/02/10 00:42:37;;;;;;;4.68;1.80;;;;;;;;;;4901385;29;20036;-73
2022/02/10 00:45:02;;;;;;;3.63;1.73;;;;;;;;;;4917647;29;20552;-73
2022/02/10 00:47:30;;;;;;;3.33;2.00;;;;;;;;;;4915184;29;20463;-73
2022/02/10 00:49:59;;;;;;;2.80;1.50;;;;;;;;;;4907131;29;20131;-73
2022/02/10 00:52:24;;;;;;;3.95;1.60;;;;;;;;;;4924887;28;20032;-73
2022/02/10 00:54:49;;;;;;;2.85;1.55;;;;;;;;;;4920887;29;20058;-73
2022/02/10 00:57:18;;;;;;;4.25;1.70;;;;;;;;;;4928124;29;20039;-73
2022/02/10 01:12:58;;;;;;;3.95;1.92;;;;;;;;;;4933060;29;20560;-73
2022/02/10 01:31:47;;;;;;;3.25;1.75;;;;;;;;;;4932576;29;20102;-74
2022/02/10 01:34:12;;;;;;;2.17;1.50;;;;;;;;;;4932310;29;20028;-73
2022/02/10 01:36:38;;;;;;;3.15;1.73;;;;;;;;;;4932056;29;20039;-72
2022/02/10 01:39:04;;;;;;;2.58;1.40;;;;;;;;;;4930953;29;20034;-72
2022/02/10 01:42:11;;;;;;;3.50;1.83;;;;;;;;;;4950704;28;20037;-75
2022/02/10 02:03:52;;;;;;;3.47;1.80;;;;;;;;;;4920942;29;20488;-73
2022/02/10 02:06:29;;;;;;;4.40;2.08;;;;;;;;;;4924232;29;20044;-72
2022/02/10 02:08:57;;;;;;;5.50;1.92;;;;;;;;;;4930026;29;20070;-72
2022/02/10 02:11:25;;;;;;;4.95;1.88;;;;;;;;;;4929173;29;20044;-73
2022/02/10 02:13:50;;;;;;;5.05;2.08;;;;;;;;;;4924897;29;20145;-74
2022/02/10 02:16:15;;;;;;;5.47;2.08;;;;;;;;;;4932477;29;20168;-72
2022/02/10 02:18:41;;;;;;;5.50;2.20;;;;;;;;;;4926798;29;20036;-73
2022/02/10 02:21:06;;;;;;;5.63;2.30;;;;;;;;;;4923910;29;20043;-73
2022/02/10 02:23:31;;;;;;;3.65;1.90;;;;;;;;;;4921552;29;20474;-72
2022/02/10 02:26:07;;;;;;;5.60;1.90;;;;;;;;;;4924595;29;20039;-71
2022/02/10 02:28:33;;;;;;;3.28;1.95;;;;;;;;;;4924605;29;20047;-73
2022/02/10 02:31:04;;;;;;;3.33;1.75;;;;;;;;;;4921539;29;20079;-74
2022/02/10 02:38:58;;;;;;;4.15;2.00;;;;;;;;;;4983081;28;20088;-72
2022/02/10 03:06:19;;;;;;;4.40;1.52;;;;;;;;;;5010534;28;20423;-73
2022/02/10 03:08:50;;;;;;;4.30;1.60;;;;;;;;;;5008157;28;20057;-73
2022/02/10 03:11:16;;;;;;;4.22;2.20;;;;;;;;;;5010602;28;20069;-72
2022/02/10 03:17:06;;;;;;;4.90;1.70;;;;;;;;;;4948931;29;20073;-73
2022/02/10 03:19:53;;;;;;;5.68;1.60;;;;;;;;;;4949554;29;20114;-73
2022/02/10 04:01:00;;;;;;;3.13;1.40;;;;;;;;;;5007401;28;20417;-73
2022/02/10 04:03:50;;;;;;;3.78;1.60;;;;;;;;;;5010246;28;20030;-73
2022/02/10 04:12:38;;;;;;;4.03;1.20;;;;;;;;;;4941947;29;20121;-73
2022/02/10 04:20:44;;;;;;;2.75;1.20;;;;;;;;;;4946787;29;20023;-74
2022/02/10 04:39:23;;;;;;;3.80;1.40;;;;;;;;;;4937778;29;20030;-73
2022/02/10 04:44:59;;;;;;;2.17;1.30;;;;;;;;;;4997580;28;20103;-72
2022/02/10 05:08:47;;;;;;;3.50;1.67;;;;;;;;;;5010750;28;20022;-73
2022/02/10 05:14:57;;;;;;;2.97;1.15;;;;;;;;;;5006817;28;20231;-73
2022/02/10 05:31:35;;;;;;;3.65;1.33;;;;;;;;;;5008209;28;20080;-73
2022/02/10 05:32:52;;;;;;;3.35;1.40;;;;;;;;;;5010432;28;20429;-75
2022/02/10 05:35:27;;;;;;;3.85;1.40;;;;;;;;;;5009329;28;20033;-73
2022/02/10 05:41:01;;;;;;;3.33;1.65;;;;;;;;;;5007619;28;20045;-73
2022/02/10 05:43:34;;;;;;;3.78;1.40;;;;;;;;;;5008968;28;20049;-73
2022/02/10 05:54:39;;;;;;;3.08;1.48;;;;;;;;;;5013093;28;20120;-74
2022/02/10 06:00:24;;;;;;;3.42;1.38;;;;;;;;;;5013158;28;20040;-74
2022/02/10 06:51:06;;;;;;;5.45;2.80;;;;;;;;;;5012105;28;20409;-76
2022/02/10 07:04:16;;;;;;;4.45;2.08;;;;;;;;;;5011851;28;20164;-75
2022/02/10 07:49:43;;;;;;;4.95;1.73;;;;;;;;;;5013184;28;20493;-77
2022/02/10 08:00:07;;;;;;;5.50;1.70;;;;;;;;;;5014423;28;20026;-74
2022/02/10 08:57:10;;;;;;;3.30;1.50;;;;;;;;;;5012261;28;20429;-76
2022/02/10 09:00:18;;;;;;;6.88;1.60;;;;;;;;;;5014038;28;20115;-74
2022/02/10 09:13:05;;;;;;;4.55;2.05;;;;;;;;;;5011104;28;20154;-75
2022/02/10 09:21:28;;;;;;;3.53;1.65;;;;;;;;;;5008434;28;20029;-75
2022/02/10 09:56:35;;;;;;;4.80;2.00;;;;;;;;;;5008244;28;20123;-76
2022/02/10 09:59:52;;;;;;;4.75;2.17;;;;;;;;;;5014334;28;20030;-76
2022/02/10 10:04:38;;;;;;;5.55;2.00;;;;;;;;;;5017676;28;20369;-75
2022/02/10 10:07:13;;;;;;;3.95;1.80;;;;;;;;;;5019840;28;20025;-76
2022/02/10 10:09:47;;;;;;;3.33;1.45;;;;;;;;;;5017518;28;20076;-75
2022/02/10 10:20:17;;;;;;;9.75;2.05;;;;;;;;;;5018556;28;20287;-76
2022/02/10 10:53:17;;;;;;;5.88;2.30;;;;;;;;;;4954117;29;20106;-75
2022/02/10 10:55:53;;;;;;;8.65;2.22;;;;;;;;;;4951912;29;20046;-76
2022/02/10 11:23:35;;;;;;;6.88;2.00;;;;;;;;;;5017932;28;20057;-76
2022/02/10 11:42:03;;;;;;;3.33;1.60;;;;;;;;;;5013237;28;20021;-76
2022/02/10 11:45:15;;;;;;;5.65;1.98;;;;;;;;;;5013697;28;20021;-76
2022/02/10 12:00:02;;;;;;;3.55;1.63;;;;;;;;;;4952381;29;20109;-77
2022/02/10 12:42:48;;;;;;;4.80;1.70;;;;;;;;;;4932344;29;20079;-75
2022/02/10 13:30:17;;;;;;;6.97;2.80;;;;;;;;;;5010926;28;20018;-74
2022/02/10 13:32:56;;;;;;;5.38;2.30;;;;;;;;;;5011160;28;20088;-77
2022/02/10 14:10:28;;;;;;;8.88;2.75;;;;;;;;;;5010649;28;20129;-76
2022/02/10 14:12:56;;;;;;;7.25;2.90;;;;;;;;;;5006876;28;20044;-74
2022/02/10 14:18:24;;;;;;;6.90;2.72;;;;;;;;;;5008578;28;20033;-75
2022/02/10 14:21:11;;;;;;;6.90;3.00;;;;;;;;;;5014905;28;20028;-77
2022/02/10 14:28:30;;;;;;;6.00;2.95;;;;;;;;;;5012448;28;20076;-76
2022/02/10 14:30:56;;;;;;;6.55;2.88;;;;;;;;;;5014686;28;20456;-77
2022/02/10 14:33:25;;;;;;;5.88;2.30;;;;;;;;;;5014991;28;20018;-75
2022/02/10 14:38:36;;;;;;;5.30;2.23;;;;;;;;;;5015230;28;20064;-75
2022/02/10 16:17:26;;;;;;;5.55;2.70;;;;;;;;;;5005916;28;20409;-76
2022/02/10 16:19:54;;;;;;;7.55;3.25;;;;;;;;;;5007591;28;20141;-75
2022/02/10 16:24:50;;;;;;;11.50;3.60;;;;;;;;;;5006335;28;20077;-74
2022/02/10 16:29:41;;;;;;;7.90;2.80;;;;;;;;;;5014176;28;20026;-74
2022/02/10 16:32:08;;;;;;;8.10;3.47;;;;;;;;;;5013380;28;20045;-76
2022/02/10 16:34:33;;;;;;;6.57;3.30;;;;;;;;;;5013404;28;20109;-75
2022/02/10 16:37:00;;;;;;;7.05;4.05;;;;;;;;;;5010516;28;20109;-76
2022/02/10 16:39:25;;;;;;;8.30;3.78;;;;;;;;;;5010845;28;20413;-76
2022/02/10 16:41:51;;;;;;;6.25;3.53;;;;;;;;;;5003917;28;20059;-75
2022/02/10 16:44:17;;;;;;;6.60;3.47;;;;;;;;;;5003304;28;20025;-77
2022/02/10 16:46:42;;;;;;;10.63;3.60;;;;;;;;;;5010091;28;20125;-78
2022/02/10 16:49:07;;;;;;;6.90;3.47;;;;;;;;;;5014362;28;20034;-75
2022/02/10 16:51:36;;;;;;;7.43;3.00;;;;;;;;;;5012395;28;20034;-74
2022/02/10 16:54:11;;;;;;;8.27;3.72;;;;;;;;;;5011092;28;20387;-73
2022/02/10 16:56:54;;;;;;;8.85;3.63;;;;;;;;;;5012775;28;20088;-75
2022/02/10 16:59:32;;;;;;;7.85;3.70;;;;;;;;;;5007612;28;20026;-73
2022/02/10 17:18:28;;;;;;;8.95;3.92;;;;;;;;;;5010642;28;20037;-74
2022/02/10 17:28:38;;;;;;;7.82;3.63;;;;;;;;;;5010095;28;20034;-74
2022/02/10 17:33:52;;;;;;;7.20;3.80;;;;;;;;;;5011039;28;20521;-73
2022/02/10 17:42:16;;;;;;;10.38;3.83;;;;;;;;;;4956493;28;20113;-74
2022/02/10 17:52:20;;;;;;;9.75;4.38;;;;;;;;;;4964158;28;20034;-73
2022/02/10 17:54:46;;;;;;;9.13;4.38;;;;;;;;;;4968083;28;20503;-75
2022/02/10 17:57:13;;;;;;;9.70;4.55;;;;;;;;;;4966063;28;20053;-76
2022/02/10 17:59:38;;;;;;;9.07;4.50;;;;;;;;;;4966515;28;20029;-74
2022/02/10 18:02:03;;;;;;;9.10;4.68;;;;;;;;;;4964686;28;20534;-74
2022/02/10 18:04:29;;;;;;;10.68;5.22;;;;;;;;;;4959452;28;20031;-74
2022/02/10 18:06:56;;;;;;;10.18;5.40;;;;;;;;;;4963466;28;20050;-72
2022/02/10 18:10:00;;;;;;;13.68;4.90;;;;;;;;;;4945744;28;20035;-73
2022/02/10 18:12:58;;;;;;;9.88;5.40;;;;;;;;;;4960575;28;20106;-75
2022/02/10 18:15:16;;;;;;;12.90;5.25;;;;;;;;;;4969276;28;20610;-74
2022/02/10 18:17:55;;;;;;;10.57;5.45;;;;;;;;;;5011789;28;20036;-73
2022/02/10 18:20:26;;;;;;;11.77;5.72;;;;;;;;;;5010231;28;20026;-73
2022/02/10 19:06:27;;;;;;;14.93;7.35;;;;;;;;;;5031168;28;20029;-77
2022/02/10 19:09:01;;;;;;;12.05;6.50;;;;;;;;;;5027935;28;20026;-77
2022/02/10 19:11:26;;;;;;;10.98;6.53;;;;;;;;;;5033319;28;20033;-81
2022/02/10 19:13:54;;;;;;;15.75;7.03;;;;;;;;;;5026915;28;20052;-80
2022/02/10 19:16:19;;;;;;;15.32;7.15;;;;;;;;;;5031113;28;20048;-77
2022/02/10 19:18:44;;;;;;;13.13;6.35;;;;;;;;;;5029997;28;20021;-78
2022/02/10 19:21:10;;;;;;;16.08;7.90;;;;;;;;;;5029956;28;20067;-79
2022/02/10 19:23:35;;;;;;;12.43;7.57;;;;;;;;;;5028696;28;20393;-77
2022/02/10 19:26:00;;;;;;;15.95;8.40;;;;;;;;;;5030847;28;20091;-78
2022/02/10 19:28:25;;;;;;;14.00;7.53;;;;;;;;;;5030792;28;20471;-78
2022/02/10 19:30:50;;;;;;;12.38;7.30;;;;;;;;;;5028230;28;20171;-79
2022/02/10 19:33:16;;;;;;;19.75;8.77;;;;;;;;;;5023764;28;20060;-79
2022/02/10 19:35:45;;;;;;;12.40;7.57;;;;;;;;;;5030480;28;20021;-78
2022/02/10 19:38:15;;;;;;;16.52;10.10;;;;;;;;;;5030273;28;20029;-78
2022/02/10 19:40:40;;;;;;;;;;;;;;;;;;5027987;28;20026;-78
2022/02/10 19:43:06;;;;;;;18.40;9.70;;;;;;;;;;5031570;28;19905;-76
2022/02/10 19:45:31;;;;;;;15.90;8.18;;;;;;;;;;5031170;28;20067;-85
2022/02/10 19:47:57;;;;;;;16.20;9.85;;;;;;;;;;5028525;28;20025;-79
2022/02/10 19:50:27;;;;;;;17.88;9.95;;;;;;;;;;5029584;28;20053;-79
2022/02/10 19:52:54;;;;;;;21.35;9.43;;;;;;;;;;5044247;28;20056;-81
2022/02/10 19:55:22;;;;;;;14.77;8.90;;;;;;;;;;5051939;28;20104;-83
2022/02/10 19:57:48;;;;;;;17.70;9.57;;;;;;;;;;5052144;28;20036;-83
2022/02/10 20:00:20;;;;;;;18.80;9.40;;;;;;;;;;5051647;28;20118;-77
2022/02/10 20:02:45;;;;;;;14.15;8.75;;;;;;;;;;5051401;28;20028;-86
2022/02/10 20:05:10;;;;;;;14.77;8.57;;;;;;;;;;5070723;28;20021;-91
2022/02/10 20:07:41;;;;;;;14.57;9.35;;;;;;;;;;5063998;28;20013;-89
2022/02/10 20:10:07;;;;;;;15.25;9.35;;;;;;;;;;5063747;28;20180;-91
2022/02/10 20:12:32;;;;;;;16.02;9.52;;;;;;;;;;5060899;28;20494;-89
2022/02/10 20:14:58;;;;;;;15.38;8.63;;;;;;;;;;5046683;28;20045;-86
2022/02/10 20:17:23;;;;;;;14.07;8.55;;;;;;;;;;5048507;28;20498;-79
2022/02/10 20:19:48;;;;;;;13.77;8.75;;;;;;;;;;5048559;28;20399;-79
2022/02/10 20:22:14;;;;;;;13.57;8.25;;;;;;;;;;5049853;28;20128;-79
2022/02/10 20:24:39;;;;;;;15.65;9.55;;;;;;;;;;5050187;28;20021;-80
2022/02/10 20:27:05;;;;;;;14.60;8.68;;;;;;;;;;5050473;28;20033;-81
2022/02/10 20:29:30;;;;;;;16.10;9.00;;;;;;;;;;5050617;28;20487;-78
2022/02/10 20:31:55;;;;;;;13.82;8.75;;;;;;;;;;5048579;28;20391;-78
2022/02/10 20:34:21;;;;;;;15.32;9.60;;;;;;;;;;5050007;28;20027;-79
2022/02/10 20:36:48;;;;;;;19.13;9.90;;;;;;;;;;5050152;28;20031;-79
2022/02/10 20:39:18;;;;;;;17.50;9.95;;;;;;;;;;5050320;28;20082;-80
2022/02/10 20:41:49;;;;;;;;;;;;;;;;;;5050815;28;20147;-78
2022/02/10 20:44:16;;;;;;;15.10;8.68;;;;;;;;;;5048557;28;19913;-82
2022/02/10 20:46:43;;;;;;;15.23;9.77;;;;;;;;;;5047690;28;20087;-81
2022/02/10 20:49:16;;;;;;;15.38;9.30;;;;;;;;;;5052358;28;20075;-81
2022/02/10 20:51:45;;;;;;;15.95;9.88;;;;;;;;;;5046664;28;20027;-78
2022/02/10 20:54:11;;;;;;;16.95;9.80;;;;;;;;;;5045401;28;20036;-81
2022/02/10 20:56:36;;;;;;;16.83;10.43;;;;;;;;;;5049280;28;20025;-81
2022/02/10 20:59:09;;;;;;;17.67;9.82;;;;;;;;;;5051170;28;20382;-82
2022/02/10 21:01:35;;;;;;;20.33;10.98;;;;;;;;;;5041265;28;20025;-79
2022/02/10 21:04:01;;;;;;;19.63;10.95;;;;;;;;;;5047623;28;20087;-79
2022/02/10 21:06:46;;;;;;;14.65;9.48;;;;;;;;;;5051340;28;20380;-81
2022/02/10 21:09:34;;;;;;;18.27;10.38;;;;;;;;;;5044325;28;20044;-80
2022/02/10 21:11:57;;;;;;;14.13;9.07;;;;;;;;;;5057390;28;20129;-79
2022/02/10 21:14:26;;;;;;;17.13;9.38;;;;;;;;;;5053341;28;20024;-79
2022/02/10 21:16:51;;;;;;;18.42;10.30;;;;;;;;;;5046454;28;20455;-80
2022/02/10 21:19:18;;;;;;;18.70;11.40;;;;;;;;;;5046100;28;20028;-79
2022/02/10 21:21:45;;;;;;;19.30;12.15;;;;;;;;;;5051321;28;20051;-80
2022/02/10 21:24:14;;;;;;;16.77;11.07;;;;;;;;;;5055179;28;20124;-80
2022/02/10 21:26:57;;;;;;;20.10;11.37;;;;;;;;;;5050557;28;20017;-76
2022/02/10 21:29:23;;;;;;;16.77;10.82;;;;;;;;;;5052819;28;20294;-79
2022/02/10 21:31:50;;;;;;;24.77;12.63;;;;;;;;;;5050148;28;20073;-77
2022/02/10 21:34:23;;;;;;;19.08;12.27;;;;;;;;;;5049811;28;20393;-77
2022/02/10 21:55:18;;;;;;;19.90;11.63;;;;;;;;;;5052505;28;20029;-77
2022/02/10 22:03:42;;;;;;;18.45;10.00;;;;;;;;;;5052052;28;20035;-76
2022/02/10 22:16:41;;;;;;;16.65;8.90;;;;;;;;;;5051940;28;20029;-77
2022/02/10 22:21:33;;;;;;;15.48;9.57;;;;;;;;;;5051982;28;20032;-76
2022/02/10 22:23:59;;;;;;;18.20;8.82;;;;;;;;;;5051762;28;20426;-76
2022/02/10 22:26:28;;;;;;;16.23;9.20;;;;;;;;;;5047658;28;20025;-76
2022/02/10 22:29:00;;;;;;;15.07;8.73;;;;;;;;;;5052058;28;20167;-76
2022/02/10 22:34:19;;;;;;;14.90;8.75;;;;;;;;;;5052594;28;20052;-77
2022/02/10 22:36:47;;;;;;;14.35;8.50;;;;;;;;;;5052558;28;20017;-79
2022/02/10 22:39:13;;;;;;;15.00;9.20;;;;;;;;;;5051738;28;20060;-77
2022/02/10 22:41:39;;;;;;;15.23;8.98;;;;;;;;;;5051691;28;20560;-78
2022/02/10 22:44:04;;;;;;;14.38;8.35;;;;;;;;;;5050847;28;20025;-78
2022/02/10 22:46:30;;;;;;;16.35;8.18;;;;;;;;;;5052009;28;20017;-77
2022/02/10 22:48:55;;;;;;;16.80;8.65;;;;;;;;;;5051978;28;20383;-78
2022/02/10 22:51:22;;;;;;;15.63;8.15;;;;;;;;;;5050608;28;20087;-80
2022/02/10 22:53:48;;;;;;;13.10;8.02;;;;;;;;;;5049799;28;20136;-76
2022/02/10 22:56:15;;;;;;;12.32;7.65;;;;;;;;;;5051294;28;20354;-78
2022/02/10 22:58:40;;;;;;;11.02;7.03;;;;;;;;;;5048048;28;20101;-78
2022/02/10 23:01:06;;;;;;;12.20;7.18;;;;;;;;;;5048050;28;20069;-77
2022/02/10 23:03:36;;;;;;;11.75;6.75;;;;;;;;;;5050135;28;20375;-77
2022/02/10 23:06:01;;;;;;;12.30;7.68;;;;;;;;;;5051297;28;20025;-79
2022/02/10 23:08:27;;;;;;;13.35;7.03;;;;;;;;;;5050999;28;20497;-76
2022/02/10 23:10:53;;;;;;;13.70;7.55;;;;;;;;;;5050259;28;20440;-77
2022/02/10 23:13:23;;;;;;;12.00;7.18;;;;;;;;;;5050526;28;20036;-78
2022/02/10 23:15:49;;;;;;;14.63;7.07;;;;;;;;;;5051440;28;20078;-77
2022/02/10 23:18:16;;;;;;;15.38;7.82;;;;;;;;;;5051281;28;20029;-77
2022/02/10 23:20:41;;;;;;;13.60;7.00;;;;;;;;;;5047432;28;20031;-77
2022/02/10 23:23:08;;;;;;;13.40;6.82;;;;;;;;;;5050644;28;20021;-76
2022/02/10 23:25:35;;;;;;;14.07;7.43;;;;;;;;;;5048800;28;20025;-77
2022/02/10 23:28:00;;;;;;;12.65;7.50;;;;;;;;;;5050270;28;20033;-77
2022/02/10 23:30:26;;;;;;;13.77;7.25;;;;;;;;;;5049213;28;20021;-77
2022/02/10 23:32:55;;;;;;;12.82;7.35;;;;;;;;;;5049880;28;20025;-79
2022/02/10 23:38:01;;;;;;;15.27;7.85;;;;;;;;;;5050442;28;20356;-77
2022/02/10 23:40:30;;;;;;;13.07;7.40;;;;;;;;;;5050606;28;20101;-76
2022/02/10 23:42:56;;;;;;;12.55;7.35;;;;;;;;;;5050157;28;20049;-78
2022/02/10 23:45:25;;;;;;;13.20;7.00;;;;;;;;;;5049740;28;20057;-77
2022/02/10 23:47:51;;;;;;;11.95;6.97;;;;;;;;;;5050759;28;20025;-77
2022/02/10 23:50:20;;;;;;;13.80;7.43;;;;;;;;;;5050174;28;20021;-77
2022/02/10 23:52:47;;;;;;;13.68;7.03;;;;;;;;;;5049940;28;20810;-76
2022/02/10 23:55:20;;;;;;;14.27;6.70;;;;;;;;;;5050127;28;20082;-75
2022/02/10 23:57:57;;;;;;;12.25;7.03;;;;;;;;;;5050288;28;20074;-77
